Time;durP1;ratioP1;P1;durP2;ratioP2;P2;SDS_P1;SDS_P2;PMS_P1;PMS_P2;Temp;Humidity;BMP_temperature;BMP_pressure;BME280_temperature;BME280_humidity;BME280_pressure;Samples;Min_cycle;Max_cycle;Signal;HPM_P1;HPM_P2
2022/09/15 00:02:21;;;;;;;41.33;24.75;;;13.00;99.90;;;;;;2612562;54;20442;-73
2022/09/15 00:08:11;;;;;;;43.00;24.60;;;12.80;99.90;;;;;;2615691;31;20923;-74
2022/09/15 00:14:00;;;;;;;46.88;25.02;;;12.70;99.90;;;;;;2613571;47;20435;-74
2022/09/15 00:19:48;;;;;;;50.23;25.77;;;12.80;99.90;;;;;;2612368;54;20418;-72
2022/09/15 00:25:48;;;;;;;48.20;23.93;;;12.70;99.90;;;;;;2612665;54;20126;-72
2022/09/15 00:31:36;;;;;;;53.60;28.00;;;12.50;99.90;;;;;;2614409;54;20391;-73
2022/09/15 00:37:24;;;;;;;65.50;28.37;;;12.30;99.90;;;;;;2613345;54;20135;-74
2022/09/15 00:43:13;;;;;;;59.33;27.27;;;12.50;99.90;;;;;;2615312;54;20564;-73
2022/09/15 00:49:22;;;;;;;56.67;27.57;;;12.50;99.90;;;;;;2615074;54;20471;-73
2022/09/15 01:04:56;;;;;;;46.95;24.85;;;11.80;99.90;;;;;;2614419;39;20729;-74
2022/09/15 01:10:45;;;;;;;51.60;25.90;;;11.60;99.90;;;;;;2615178;54;20447;-75
2022/09/15 01:16:41;;;;;;;43.40;24.60;;;11.40;99.90;;;;;;2614835;54;20394;-74
2022/09/15 01:29:25;;;;;;;56.17;26.13;;;11.70;99.90;;;;;;2614724;54;20982;-75
2022/09/15 01:35:16;;;;;;;54.67;27.23;;;11.70;99.90;;;;;;2614850;54;21035;-74
2022/09/15 01:41:13;;;;;;;65.80;30.13;;;11.60;99.90;;;;;;2615342;54;20427;-75
2022/09/15 01:47:05;;;;;;;59.00;27.97;;;11.60;99.90;;;;;;2613070;54;20376;-76
2022/09/15 01:52:58;;;;;;;58.07;26.93;;;11.70;99.90;;;;;;2615925;39;20721;-76
2022/09/15 01:58:49;;;;;;;51.03;26.90;;;11.50;99.90;;;;;;2614169;54;20406;-75
2022/09/15 02:21:09;;;;;;;54.05;26.00;;;11.60;99.90;;;;;;2614846;54;20403;-72
2022/09/15 02:26:58;;;;;;;49.60;24.60;;;11.60;99.90;;;;;;2613920;54;20123;-73
2022/09/15 02:36:16;;;;;;;64.80;29.63;;;11.60;99.90;;;;;;2611996;39;20873;-73
2022/09/15 02:44:57;;;;;;;62.33;26.57;;;11.70;99.90;;;;;;2612234;54;20399;-73
2022/09/15 02:50:44;;;;;;;67.43;28.53;;;11.70;99.90;;;;;;2612849;54;20411;-73
2022/09/15 02:56:34;;;;;;;60.90;28.37;;;11.90;99.90;;;;;;2612656;54;20193;-73
2022/09/15 03:02:23;;;;;;;63.90;30.37;;;11.90;99.90;;;;;;2613607;54;20409;-73
2022/09/15 03:08:11;;;;;;;58.37;29.33;;;12.00;99.90;;;;;;2613196;54;20543;-72
2022/09/15 03:14:00;;;;;;;53.63;26.93;;;12.10;99.90;;;;;;2614155;54;20905;-73
2022/09/15 03:19:49;;;;;;;57.23;29.70;;;12.20;99.90;;;;;;2613671;54;20522;-73
2022/09/15 03:25:37;;;;;;;64.27;27.90;;;12.30;99.90;;;;;;2613255;54;20518;-74
2022/09/15 03:31:24;;;;;;;65.07;28.80;;;12.30;99.90;;;;;;2614452;54;20173;-73
2022/09/15 03:37:12;;;;;;;59.37;30.57;;;12.40;99.90;;;;;;2614975;54;20150;-74
2022/09/15 03:43:00;;;;;;;59.33;29.73;;;12.60;99.90;;;;;;2614292;39;20619;-73
2022/09/15 03:48:48;;;;;;;79.93;32.87;;;12.80;99.90;;;;;;2613259;54;20134;-73
2022/09/15 03:54:35;;;;;;;65.38;32.25;;;12.80;99.90;;;;;;2614743;54;20130;-72
2022/09/15 04:00:23;;;;;;;72.95;35.35;;;12.80;99.90;;;;;;2614424;46;20181;-72
2022/09/15 04:03:24;;;;;;;77.40;35.70;;;12.90;99.90;;;;;;2612770;54;20151;-73
2022/09/15 04:05:49;;;;;;;86.00;35.80;;;13.00;99.90;;;;;;2613496;47;20166;-72
2022/09/15 04:11:39;;;;;;;68.93;36.03;;;13.10;99.90;;;;;;2613862;54;20122;-73
2022/09/15 04:17:27;;;;;;;88.27;37.30;;;13.10;99.90;;;;;;2614975;54;20379;-73
2022/09/15 04:23:15;;;;;;;76.53;35.93;;;13.20;99.90;;;;;;2614087;54;20446;-72
2022/09/15 04:29:09;;;;;;;83.50;36.13;;;13.30;99.90;;;;;;2613806;54;20399;-74
2022/09/15 04:34:57;;;;;;;74.40;35.67;;;13.30;99.90;;;;;;2615193;54;20134;-72
2022/09/15 04:40:45;;;;;;;77.43;35.20;;;13.20;99.90;;;;;;2614367;54;20710;-73
2022/09/15 04:46:33;;;;;;;59.90;30.80;;;13.20;99.90;;;;;;2613596;54;20146;-74
2022/09/15 04:52:20;;;;;;;63.20;32.70;;;13.30;99.90;;;;;;2614170;54;20571;-73
2022/09/15 04:58:08;;;;;;;65.00;32.47;;;13.30;99.90;;;;;;2614758;54;20170;-73
2022/09/15 05:07:55;;;;;;;63.33;32.40;;;13.40;99.90;;;;;;2615294;46;20421;-73
2022/09/15 05:13:44;;;;;;;60.38;30.13;;;13.40;99.90;;;;;;2614964;54;20419;-73
2022/09/15 05:19:32;;;;;;;66.30;31.33;;;13.50;99.90;;;;;;2613470;54;20386;-73
2022/09/15 05:25:20;;;;;;;70.67;32.93;;;13.60;99.90;;;;;;2615107;54;20403;-71
2022/09/15 05:37:22;;;;;;;62.53;34.53;;;13.60;99.90;;;;;;2612295;54;20130;-73
2022/09/15 05:43:10;;;;;;;65.57;34.87;;;13.60;99.90;;;;;;2613295;54;20138;-72
2022/09/15 05:48:58;;;;;;;55.77;32.57;;;13.80;99.90;;;;;;2614935;54;20165;-74
2022/09/15 05:54:46;;;;;;;60.17;34.53;;;13.80;99.90;;;;;;2614476;54;20162;-72
2022/09/15 06:00:33;;;;;;;72.80;34.87;;;13.90;99.90;;;;;;2613025;54;20403;-76
2022/09/15 06:03:24;;;;;;;60.60;33.35;;;13.90;99.90;;;;;;2611791;54;20515;-72
2022/09/15 06:12:25;;;;;;;59.33;32.23;;;14.00;99.90;;;;;;2612223;39;20835;-72
2022/09/15 06:18:13;;;;;;;64.77;34.73;;;14.00;99.90;;;;;;2611975;54;20126;-72
2022/09/15 06:24:03;;;;;;;71.07;35.20;;;14.10;99.90;;;;;;2613386;54;20180;-72
2022/09/15 06:29:53;;;;;;;65.07;33.90;;;14.10;99.90;;;;;;2610758;54;20423;-72
2022/09/15 06:35:40;;;;;;;74.73;35.10;;;14.20;99.90;;;;;;2610758;54;20379;-71
2022/09/15 06:41:28;;;;;;;59.97;31.90;;;14.10;99.90;;;;;;2612098;39;20586;-73
2022/09/15 06:47:15;;;;;;;63.00;34.53;;;14.30;99.90;;;;;;2611439;54;20230;-72
2022/09/15 06:53:03;;;;;;;66.27;34.53;;;14.30;99.90;;;;;;2613700;54;20162;-77
2022/09/15 06:58:50;;;;;;;58.57;33.60;;;14.40;99.90;;;;;;2613196;54;20118;-72
2022/09/15 07:08:00;;;;;;;61.57;33.37;;;14.60;99.90;;;;;;2614010;54;20407;-72
2022/09/15 07:13:48;;;;;;;55.30;30.83;;;14.70;99.90;;;;;;2614819;54;20515;-73
2022/09/15 07:19:37;;;;;;;46.77;28.20;;;14.80;99.90;;;;;;2614539;54;20951;-71
2022/09/15 07:25:24;;;;;;;61.80;29.03;;;14.90;99.90;;;;;;2613759;54;20502;-72
2022/09/15 07:31:15;;;;;;;47.80;27.07;;;14.90;99.90;;;;;;2610772;54;20177;-73
2022/09/15 07:37:02;;;;;;;43.03;25.20;;;15.00;99.90;;;;;;2614875;54;20435;-73
2022/09/15 07:42:51;;;;;;;39.67;20.90;;;15.30;99.90;;;;;;2613892;54;20678;-72
2022/09/15 07:48:38;;;;;;;31.70;20.60;;;15.40;99.90;;;;;;2613703;54;20183;-73
2022/09/15 07:54:26;;;;;;;20.50;15.50;;;16.00;99.90;;;;;;2613888;54;20160;-72
2022/09/15 08:00:14;;;;;;;17.60;12.40;;;16.30;99.90;;;;;;2612913;54;20318;-74
2022/09/15 08:06:10;;;;;;;19.13;12.43;;;16.20;99.90;;;;;;2612140;54;20387;-73
2022/09/15 08:11:58;;;;;;;16.23;10.97;;;16.50;99.90;;;;;;2611569;46;20427;-72
2022/09/15 08:17:45;;;;;;;10.60;8.57;;;16.50;99.90;;;;;;2611717;54;20212;-73
2022/09/15 08:23:33;;;;;;;8.35;7.28;;;16.70;99.90;;;;;;2610931;54;20306;-72
2022/09/15 08:29:20;;;;;;;9.23;6.70;;;16.70;99.90;;;;;;2613276;47;20615;-73
2022/09/15 08:35:08;;;;;;;8.30;5.20;;;17.10;99.90;;;;;;2608605;54;20154;-74
2022/09/15 08:41:02;;;;;;;8.40;4.63;;;17.10;99.90;;;;;;2610607;54;20521;-71
2022/09/15 08:53:34;;;;;;;7.77;4.60;;;17.20;99.90;;;;;;2612949;54;20396;-72
2022/09/15 09:20:22;;;;;;;7.73;2.97;;;17.70;99.90;;;;;;2613215;54;20390;-73
2022/09/15 09:26:11;;;;;;;3.90;3.10;;;18.00;99.90;;;;;;2613153;54;20442;-73
2022/09/15 09:32:00;;;;;;;5.40;3.33;;;18.90;99.00;;;;;;2614170;54;20455;-72
2022/09/15 09:37:49;;;;;;;5.03;2.90;;;19.00;99.90;;;;;;2613844;54;20427;-71
2022/09/15 09:43:37;;;;;;;5.03;3.20;;;18.50;98.00;;;;;;2613778;54;20488;-72
2022/09/15 09:49:27;;;;;;;4.90;2.87;;;18.00;98.70;;;;;;2613255;54;20387;-72
2022/09/15 09:55:22;;;;;;;4.15;2.50;;;18.10;95.90;;;;;;2614273;54;20475;-73
2022/09/15 10:07:44;;;;;;;5.80;3.23;;;17.90;96.90;;;;;;2613923;54;20420;-72
2022/09/15 10:13:33;;;;;;;7.77;3.10;;;18.30;91.40;;;;;;2613471;54;20416;-72
2022/09/15 10:19:20;;;;;;;3.60;2.70;;;18.20;89.30;;;;;;2613062;54;20439;-72
2022/09/15 10:25:19;;;;;;;7.23;3.60;;;18.50;91.70;;;;;;2613431;54;20166;-73
2022/09/15 10:51:20;;;;;;;6.83;3.13;;;17.00;99.90;;;;;;2613856;54;20393;-73
2022/09/15 10:57:13;;;;;;;7.60;2.33;;;16.60;99.90;;;;;;2614133;54;20530;-72
2022/09/15 11:23:16;;;;;;;4.60;2.23;;;14.70;99.90;;;;;;2614082;54;20387;-73
2022/09/15 11:35:46;;;;;;;4.10;2.60;;;14.90;99.90;;;;;;2614226;54;20368;-73
2022/09/15 11:41:40;;;;;;;5.05;2.80;;;15.20;99.90;;;;;;2613852;54;20387;-73
2022/09/15 11:54:12;;;;;;;10.47;3.17;;;16.70;99.90;;;;;;2613813;54;20379;-73
2022/09/15 12:00:09;;;;;;;5.63;2.60;;;17.40;99.90;;;;;;2611097;54;20427;-72
2022/09/15 12:03:27;;;;;;;4.13;2.50;;;18.20;99.90;;;;;;2611974;47;20569;-72
2022/09/15 12:06:14;;;;;;;5.10;2.30;;;18.30;99.90;;;;;;2609975;54;21528;-72
2022/09/15 12:12:20;;;;;;;3.47;2.03;;;17.70;99.90;;;;;;2613043;54;20407;-72
2022/09/15 12:54:38;;;;;;;5.10;2.83;;;17.10;99.90;;;;;;2614381;54;20402;-73
2022/09/15 13:00:29;;;;;;;6.60;2.67;;;17.30;99.90;;;;;;2615587;54;20427;-72
2022/09/15 13:03:27;;;;;;;7.28;2.72;;;17.40;99.90;;;;;;2614368;54;20423;-74
2022/09/15 13:06:14;;;;;;;5.00;2.50;;;17.60;99.90;;;;;;2612857;47;20166;-74
2022/09/15 13:12:04;;;;;;;4.00;2.60;;;18.10;99.90;;;;;;2615984;54;20472;-72
2022/09/15 13:17:53;;;;;;;7.95;2.95;;;17.80;99.90;;;;;;2614897;54;20856;-73
2022/09/15 13:23:43;;;;;;;3.70;2.40;;;17.70;99.90;;;;;;2612252;39;20691;-73
2022/09/15 13:29:35;;;;;;;5.50;3.00;;;18.10;99.90;;;;;;2615242;54;20236;-72
2022/09/15 13:55:16;;;;;;;2.40;2.03;;;18.00;97.50;;;;;;2612748;54;20415;-73
2022/09/15 14:01:06;;;;;;;9.20;2.47;;;17.80;89.80;;;;;;2613823;54;20466;-74
2022/09/15 14:16:55;;;;;;;9.17;2.30;;;17.80;91.70;;;;;;2613440;54;20504;-72
2022/09/15 14:22:48;;;;;;;3.60;2.30;;;18.30;86.30;;;;;;2612063;54;20154;-74
2022/09/15 14:28:36;;;;;;;8.27;2.60;;;18.10;83.80;;;;;;2613652;54;20387;-73
2022/09/15 14:34:27;;;;;;;10.57;2.63;;;18.30;90.10;;;;;;2614654;54;20423;-72
2022/09/15 14:40:23;;;;;;;3.90;2.40;;;18.20;89.70;;;;;;2611382;54;20512;-72
2022/09/15 14:46:19;;;;;;;3.37;2.40;;;17.80;80.70;;;;;;2612080;39;20757;-73
2022/09/15 14:58:50;;;;;;;3.20;2.50;;;18.70;92.40;;;;;;2613719;46;20423;-73
2022/09/15 15:04:41;;;;;;;5.60;2.43;;;18.40;77.50;;;;;;2614923;54;20959;-72
2022/09/15 15:10:30;;;;;;;3.90;2.50;;;19.50;76.00;;;;;;2614408;54;20408;-74
2022/09/15 15:16:21;;;;;;;4.13;3.13;;;18.50;70.10;;;;;;2614551;54;20510;-72
2022/09/15 15:22:19;;;;;;;4.07;2.70;;;18.60;74.80;;;;;;2613544;54;20399;-73
2022/09/15 15:35:00;;;;;;;6.13;2.50;;;19.70;61.80;;;;;;2614279;54;20360;-74
2022/09/15 15:47:13;;;;;;;5.57;4.30;;;19.60;63.80;;;;;;2614322;54;20404;-73
2022/09/15 15:53:01;;;;;;;4.87;2.83;;;19.20;78.70;;;;;;2613079;54;20917;-73
2022/09/15 15:58:49;;;;;;;7.00;4.13;;;18.00;90.20;;;;;;2612114;54;20930;-74
2022/09/15 16:04:37;;;;;;;8.23;4.00;;;17.80;94.20;;;;;;2612783;54;20126;-73
2022/09/15 16:10:29;;;;;;;7.63;3.83;;;17.50;92.70;;;;;;2608415;54;20740;-72
2022/09/15 16:16:20;;;;;;;10.65;5.25;;;17.40;94.00;;;;;;2614695;54;20383;-73
2022/09/15 16:28:23;;;;;;;7.20;3.10;;;17.40;85.00;;;;;;2613908;54;20508;-73
2022/09/15 16:34:16;;;;;;;7.30;2.70;;;17.30;87.40;;;;;;2612390;54;20600;-73
2022/09/15 16:40:04;;;;;;;7.70;2.13;;;17.30;73.20;;;;;;2613243;54;20398;-73
2022/09/15 16:45:52;;;;;;;4.50;2.13;;;17.30;64.40;;;;;;2615006;54;20402;-73
2022/09/15 16:51:43;;;;;;;3.63;2.45;;;17.20;58.80;;;;;;2615360;54;20671;-72
2022/09/15 16:57:31;;;;;;;4.83;2.30;;;17.10;57.80;;;;;;2615213;54;20407;-73
2022/09/15 17:03:21;;;;;;;14.43;3.63;;;16.90;57.40;;;;;;2614613;39;20777;-72
2022/09/15 17:12:31;;;;;;;6.60;3.23;;;16.90;56.40;;;;;;2614065;54;20481;-74
2022/09/15 17:15:35;;;;;;;6.00;2.70;;;16.80;58.10;;;;;;2613943;54;20388;-73
2022/09/15 17:18:00;;;;;;;2.65;2.42;;;16.70;59.90;;;;;;2615009;54;20165;-72
2022/09/15 17:23:49;;;;;;;6.90;2.60;;;16.60;66.00;;;;;;2612837;54;20406;-73
2022/09/15 17:29:36;;;;;;;4.78;2.42;;;16.30;68.30;;;;;;2614533;54;20390;-73
2022/09/15 17:35:25;;;;;;;5.93;2.60;;;16.30;68.90;;;;;;2615491;39;20526;-73
2022/09/15 17:41:19;;;;;;;3.40;2.37;;;16.20;72.80;;;;;;2612262;54;20395;-73
2022/09/15 17:47:07;;;;;;;6.70;3.00;;;16.20;73.80;;;;;;2614927;39;20562;-74
2022/09/15 17:52:55;;;;;;;5.47;2.93;;;16.30;72.40;;;;;;2614425;54;20146;-72
2022/09/15 17:58:44;;;;;;;3.40;2.60;;;16.20;71.20;;;;;;2615090;46;20138;-71
2022/09/15 18:04:32;;;;;;;3.53;2.50;;;16.10;71.90;;;;;;2613923;54;20943;-73
2022/09/15 18:10:20;;;;;;;5.80;2.77;;;16.10;73.40;;;;;;2614931;54;20474;-72
2022/09/15 18:16:12;;;;;;;7.10;3.47;;;15.90;77.50;;;;;;2612914;54;20426;-74
2022/09/15 18:22:00;;;;;;;2.50;2.30;;;15.90;75.80;;;;;;2612371;39;20450;-73
2022/09/15 18:27:48;;;;;;;5.20;3.00;;;15.80;78.60;;;;;;2613899;54;20134;-72
2022/09/15 18:33:36;;;;;;;2.90;2.17;;;15.80;79.00;;;;;;2612886;54;20188;-73
2022/09/15 18:39:24;;;;;;;4.47;2.40;;;15.80;78.50;;;;;;2614116;54;20674;-73
2022/09/15 18:45:14;;;;;;;2.83;2.50;;;15.70;85.80;;;;;;2613917;54;20142;-73
2022/09/15 18:51:07;;;;;;;12.65;4.32;;;15.70;89.20;;;;;;2611874;54;20407;-73
2022/09/15 18:56:55;;;;;;;4.47;3.03;;;15.60;90.30;;;;;;2614341;54;20414;-73
2022/09/15 19:02:43;;;;;;;5.33;2.77;;;15.50;90.70;;;;;;2615152;31;20937;-73
2022/09/15 19:12:32;;;;;;;5.72;2.35;;;15.30;94.30;;;;;;2613330;54;20900;-73
2022/09/15 19:18:20;;;;;;;5.20;2.30;;;15.00;99.90;;;;;;2614543;39;20871;-75
2022/09/15 19:24:07;;;;;;;4.70;2.73;;;15.00;99.90;;;;;;2613823;54;20411;-73
2022/09/15 19:29:55;;;;;;;8.17;2.77;;;14.90;99.90;;;;;;2614575;54;20134;-72
2022/09/15 19:35:43;;;;;;;8.10;3.20;;;15.10;99.90;;;;;;2613879;54;20135;-73
2022/09/15 19:41:31;;;;;;;5.40;2.70;;;15.20;99.90;;;;;;2613233;54;20153;-75
2022/09/15 19:47:18;;;;;;;3.80;2.60;;;15.30;99.90;;;;;;2614279;54;20238;-73
2022/09/15 19:53:06;;;;;;;5.65;2.78;;;15.20;99.90;;;;;;2612256;54;20150;-72
2022/09/15 19:58:55;;;;;;;4.67;3.33;;;15.00;99.90;;;;;;2613322;54;20138;-72
2022/09/15 20:04:43;;;;;;;5.77;2.53;;;14.90;99.90;;;;;;2612856;54;20376;-74
2022/09/15 20:10:31;;;;;;;8.03;2.83;;;14.60;99.90;;;;;;2614904;39;20789;-73
2022/09/15 20:16:21;;;;;;;4.60;2.73;;;14.50;99.90;;;;;;2614015;54;22006;-73
2022/09/15 20:22:09;;;;;;;6.57;2.77;;;14.40;99.90;;;;;;2612540;54;20939;-73
2022/09/15 20:27:56;;;;;;;3.77;2.80;;;14.40;99.90;;;;;;2614119;54;20258;-72
2022/09/15 20:33:46;;;;;;;3.50;3.20;;;14.30;99.90;;;;;;2613099;54;20150;-72
2022/09/15 20:39:34;;;;;;;4.07;2.47;;;14.00;99.90;;;;;;2613627;54;20503;-73
2022/09/15 20:45:23;;;;;;;4.30;3.50;;;14.20;99.90;;;;;;2613214;54;20399;-72
2022/09/15 20:51:12;;;;;;;5.50;2.50;;;14.30;99.90;;;;;;2613849;39;20767;-74
2022/09/15 20:57:00;;;;;;;11.98;2.85;;;14.30;99.90;;;;;;2614625;54;20414;-73
2022/09/15 20:59:56;;;;;;;14.07;2.53;;;14.20;99.90;;;;;;2614083;54;20159;-73
2022/09/15 21:02:21;;;;;;;4.47;2.85;;;14.20;99.90;;;;;;2614325;47;20414;-72
2022/09/15 21:08:10;;;;;;;4.67;2.70;;;14.10;99.90;;;;;;2611020;54;20223;-73
2022/09/15 21:13:58;;;;;;;7.17;2.67;;;14.20;99.90;;;;;;2610040;54;20464;-72
2022/09/15 21:19:46;;;;;;;5.03;3.57;;;14.30;99.90;;;;;;2610845;54;20126;-74
2022/09/15 21:25:34;;;;;;;5.93;3.07;;;14.20;99.90;;;;;;2612014;54;20145;-73
2022/09/15 21:31:28;;;;;;;4.40;3.17;;;14.20;99.90;;;;;;2610223;54;20402;-72
2022/09/15 21:37:15;;;;;;;9.27;2.50;;;14.10;99.90;;;;;;2611406;39;20766;-72
2022/09/15 21:43:03;;;;;;;4.73;3.37;;;14.10;99.90;;;;;;2613483;54;20495;-73
2022/09/15 21:48:51;;;;;;;5.90;2.83;;;14.10;99.90;;;;;;2611860;54;20130;-71
2022/09/15 21:54:39;;;;;;;12.63;3.10;;;14.10;99.90;;;;;;2613314;54;20134;-72
2022/09/15 22:10:58;;;;;;;3.77;2.53;;;13.90;99.90;;;;;;2609111;54;20151;-73
2022/09/15 22:16:45;;;;;;;8.93;3.70;;;13.90;99.90;;;;;;2610762;54;20444;-73
2022/09/15 22:22:35;;;;;;;4.50;2.20;;;13.80;99.90;;;;;;2609934;54;20130;-72
2022/09/15 22:28:22;;;;;;;11.25;3.10;;;13.70;99.90;;;;;;2608834;54;20391;-73
2022/09/15 22:34:09;;;;;;;6.70;2.87;;;13.60;99.90;;;;;;2611778;54;20641;-72
2022/09/15 22:39:57;;;;;;;8.00;3.33;;;13.50;99.90;;;;;;2612946;54;20154;-73
2022/09/15 22:45:45;;;;;;;4.77;3.30;;;13.40;99.90;;;;;;2612900;54;20158;-72
2022/09/15 22:51:32;;;;;;;5.57;3.30;;;13.50;99.90;;;;;;2614155;39;20928;-72
2022/09/15 22:57:20;;;;;;;9.82;3.97;;;13.40;99.90;;;;;;2614028;54;20138;-73
2022/09/15 23:07:20;;;;;;;6.80;2.80;;;13.50;99.90;;;;;;2612406;39;20812;-73
2022/09/15 23:13:08;;;;;;;4.60;3.63;;;13.50;99.90;;;;;;2611737;54;20573;-72
2022/09/15 23:18:57;;;;;;;8.23;2.77;;;13.50;99.90;;;;;;2608772;54;20447;-72
2022/09/15 23:24:44;;;;;;;5.53;2.90;;;13.40;99.90;;;;;;2611453;54;20419;-72
2022/09/15 23:30:31;;;;;;;5.50;2.73;;;13.30;99.90;;;;;;2611448;54;20671;-73
2022/09/15 23:36:18;;;;;;;4.70;2.67;;;13.20;99.90;;;;;;2611545;54;20130;-74
2022/09/15 23:42:06;;;;;;;4.43;2.90;;;13.20;99.90;;;;;;2612768;54;20434;-72
2022/09/15 23:47:53;;;;;;;3.97;2.97;;;13.10;99.90;;;;;;2611677;54;21573;-74
2022/09/15 23:53:41;;;;;;;4.73;3.50;;;13.20;99.90;;;;;;2614974;54;20150;-73
2022/09/15 23:59:29;;;;;;;7.63;3.50;;;13.20;99.90;;;;;;2611482;54;20491;-72
